Time;durP1;ratioP1;P1;durP2;ratioP2;P2;SDS_P1;SDS_P2;PMS_P1;PMS_P2;Temp;Humidity;BMP_temperature;BMP_pressure;BME280_temperature;BME280_humidity;BME280_pressure;Samples;Min_cycle;Max_cycle;Signal;HPM_P1;HPM_P2
2023/03/07 05:32:05;;;;;;;9.32;4.70;;;7.70;67.50;;;;;;6124057;23;20101;-75
2023/03/07 05:34:31;;;;;;;7.85;5.00;;;7.70;67.40;;;;;;6125423;23;20045;-75
2023/03/07 05:36:57;;;;;;;13.70;6.18;;;7.70;67.60;;;;;;6128400;23;20021;-77
2023/03/07 05:39:23;;;;;;;14.77;5.72;;;7.70;67.40;;;;;;6129225;23;20463;-78
2023/03/07 05:41:50;;;;;;;8.05;4.35;;;7.70;67.80;;;;;;6128882;23;20022;-79
2023/03/07 05:44:16;;;;;;;9.57;4.50;;;7.70;67.70;;;;;;6103153;23;20065;-78
2023/03/07 05:46:42;;;;;;;7.22;4.68;;;7.70;67.50;;;;;;6129097;23;20002;-78
2023/03/07 05:49:07;;;;;;;8.40;4.43;;;7.70;67.50;;;;;;6128944;23;20065;-78
2023/03/07 05:51:33;;;;;;;7.38;3.75;;;7.80;67.30;;;;;;6129113;23;20064;-78
2023/03/07 05:53:59;;;;;;;7.65;4.15;;;7.70;67.00;;;;;;6102859;23;20029;-78
2023/03/07 05:56:25;;;;;;;7.40;4.50;;;7.70;66.80;;;;;;6128814;23;19994;-78
2023/03/07 05:58:53;;;;;;;9.30;4.20;;;7.70;66.80;;;;;;6124778;23;20338;-73
2023/03/07 06:01:18;;;;;;;5.05;3.65;;;7.70;66.80;;;;;;6124857;23;20006;-72
2023/03/07 06:03:44;;;;;;;6.85;3.78;;;7.80;66.50;;;;;;6125268;23;20009;-72
2023/03/07 06:06:11;;;;;;;10.30;3.92;;;7.80;66.30;;;;;;6099913;23;20014;-72
2023/03/07 06:08:37;;;;;;;5.43;3.40;;;7.80;65.90;;;;;;6127612;23;20030;-72
2023/03/07 06:11:03;;;;;;;7.68;3.75;;;7.80;65.50;;;;;;6128661;23;20009;-73
2023/03/07 06:13:29;;;;;;;6.72;3.42;;;7.80;65.40;;;;;;6129002;23;20017;-74
2023/03/07 06:15:58;;;;;;;6.15;3.65;;;7.90;65.00;;;;;;6128483;23;20006;-74
2023/03/07 06:18:24;;;;;;;7.57;3.88;;;7.90;64.80;;;;;;6102629;23;20033;-74
2023/03/07 06:21:11;;;;;;;5.35;3.80;;;7.90;64.90;;;;;;6128982;23;20037;-73
2023/03/07 06:23:37;;;;;;;4.90;3.17;;;7.90;64.80;;;;;;6129084;23;20009;-74
2023/03/07 06:26:03;;;;;;;6.40;4.35;;;7.90;64.60;;;;;;6128337;23;20006;-74
2023/03/07 06:28:29;;;;;;;7.78;4.38;;;7.90;64.20;;;;;;6102629;23;20010;-74
2023/03/07 06:30:55;;;;;;;9.00;4.43;;;7.90;64.00;;;;;;6128428;23;20031;-74
2023/03/07 06:33:23;;;;;;;5.47;3.20;;;7.80;63.90;;;;;;6127791;23;20084;-74
2023/03/07 06:35:49;;;;;;;4.82;3.35;;;7.70;63.80;;;;;;6128621;23;20434;-74
2023/03/07 06:38:15;;;;;;;5.82;3.38;;;7.70;64.00;;;;;;6127354;23;20025;-75
2023/03/07 06:40:41;;;;;;;4.95;2.97;;;7.70;64.00;;;;;;6128265;23;20035;-74
2023/03/07 06:43:08;;;;;;;4.85;3.88;;;7.70;63.90;;;;;;6126924;23;20006;-74
2023/03/07 06:45:34;;;;;;;6.70;3.47;;;7.70;64.00;;;;;;6128298;23;20007;-74
2023/03/07 06:47:59;;;;;;;3.97;2.88;;;7.70;63.80;;;;;;6128239;23;20080;-74
2023/03/07 06:50:31;;;;;;;6.43;2.83;;;7.80;63.80;;;;;;6127356;23;20081;-74
2023/03/07 06:52:56;;;;;;;6.18;3.67;;;7.80;63.50;;;;;;6128326;23;20025;-74
2023/03/07 06:55:22;;;;;;;4.57;2.35;;;7.80;63.30;;;;;;6128803;23;20006;-74
2023/03/07 06:57:48;;;;;;;5.95;3.03;;;7.80;63.20;;;;;;6102192;23;20041;-74
2023/03/07 07:00:14;;;;;;;7.45;3.33;;;7.80;63.00;;;;;;6127803;23;20002;-78
2023/03/07 07:02:39;;;;;;;8.75;3.60;;;7.80;63.10;;;;;;6127423;23;20025;-81
2023/03/07 07:05:05;;;;;;;4.68;3.05;;;7.80;63.20;;;;;;6129207;23;20382;-79
2023/03/07 07:07:31;;;;;;;6.60;3.28;;;7.80;63.20;;;;;;6128611;23;20005;-80
2023/03/07 07:09:57;;;;;;;6.40;3.45;;;7.80;63.40;;;;;;6100247;23;20464;-78
2023/03/07 07:12:22;;;;;;;5.68;3.15;;;7.90;63.30;;;;;;6128457;23;20353;-80
2023/03/07 07:14:48;;;;;;;6.97;3.78;;;7.90;63.10;;;;;;6102437;23;20394;-78
2023/03/07 07:17:14;;;;;;;9.18;3.63;;;7.90;63.00;;;;;;6128578;23;20002;-78
2023/03/07 07:19:39;;;;;;;5.85;3.30;;;8.00;62.90;;;;;;6127401;23;20086;-78
2023/03/07 07:22:10;;;;;;;8.82;3.83;;;8.00;62.90;;;;;;6128150;23;20529;-78
2023/03/07 07:24:39;;;;;;;7.72;4.00;;;7.90;63.10;;;;;;6128606;23;20002;-78
2023/03/07 07:27:05;;;;;;;7.15;4.18;;;7.90;63.30;;;;;;6128175;23;20478;-78
2023/03/07 07:29:31;;;;;;;5.85;3.75;;;7.90;63.20;;;;;;6127921;23;20010;-78
2023/03/07 07:31:56;;;;;;;6.55;3.67;;;7.90;63.00;;;;;;6118814;23;20036;-80
2023/03/07 07:34:22;;;;;;;9.57;4.65;;;7.80;63.00;;;;;;6127213;23;20065;-74
2023/03/07 07:36:48;;;;;;;11.05;4.70;;;7.90;62.90;;;;;;6128078;23;20073;-74
2023/03/07 07:39:16;;;;;;;5.10;3.53;;;7.80;62.80;;;;;;6125858;23;20025;-74
2023/03/07 07:41:43;;;;;;;5.57;3.38;;;7.80;63.00;;;;;;6127409;23;20057;-74
2023/03/07 07:44:09;;;;;;;7.85;3.15;;;7.80;62.90;;;;;;6128323;23;20002;-75
2023/03/07 07:46:35;;;;;;;5.45;3.22;;;7.90;63.00;;;;;;6126459;23;20078;-73
2023/03/07 07:49:00;;;;;;;6.20;4.07;;;7.90;62.50;;;;;;6128404;23;20326;-74
2023/03/07 07:51:26;;;;;;;9.35;3.38;;;7.90;62.60;;;;;;6128037;23;20010;-74
2023/03/07 07:53:51;;;;;;;7.82;4.38;;;7.90;62.60;;;;;;6127844;23;20517;-74
2023/03/07 07:56:17;;;;;;;7.15;4.32;;;7.90;62.20;;;;;;6126716;23;20006;-74
2023/03/07 07:58:43;;;;;;;6.50;3.72;;;7.90;62.40;;;;;;6127719;23;19998;-74
2023/03/07 08:01:17;;;;;;;6.10;4.20;;;8.00;62.50;;;;;;6127892;23;20058;-74
2023/03/07 08:03:43;;;;;;;8.02;4.43;;;8.10;62.10;;;;;;6128367;23;20009;-74
2023/03/07 08:06:09;;;;;;;7.13;4.57;;;8.10;61.80;;;;;;6129715;23;20006;-74
2023/03/07 08:08:35;;;;;;;10.25;4.40;;;8.20;61.90;;;;;;6130202;23;20017;-74
2023/03/07 08:11:01;;;;;;;10.45;4.40;;;8.20;61.60;;;;;;6130314;23;20010;-74
2023/03/07 08:13:27;;;;;;;6.30;4.18;;;8.20;61.60;;;;;;6128937;23;20442;-75
2023/03/07 08:15:53;;;;;;;7.63;4.13;;;8.30;61.50;;;;;;6129495;23;20024;-74
2023/03/07 08:18:18;;;;;;;5.95;3.92;;;8.30;61.50;;;;;;6130161;23;20052;-75
2023/03/07 08:20:44;;;;;;;8.57;4.75;;;8.30;61.30;;;;;;6129844;23;20025;-74
2023/03/07 08:23:09;;;;;;;7.65;4.35;;;8.30;61.50;;;;;;6129681;23;19994;-74
2023/03/07 08:25:35;;;;;;;8.48;4.35;;;8.30;61.30;;;;;;6130012;23;20438;-74
2023/03/07 08:28:03;;;;;;;8.38;4.38;;;8.40;61.50;;;;;;6129677;23;20446;-74
2023/03/07 08:30:31;;;;;;;8.65;4.63;;;8.40;61.30;;;;;;6129717;23;19998;-74
2023/03/07 08:32:57;;;;;;;7.68;4.03;;;8.40;61.40;;;;;;6128950;23;19998;-74
2023/03/07 08:35:24;;;;;;;7.43;3.33;;;8.50;61.40;;;;;;6129493;23;20085;-74
2023/03/07 08:37:55;;;;;;;8.05;4.13;;;8.50;61.30;;;;;;6128521;23;20002;-74
2023/03/07 08:40:21;;;;;;;;;;;8.50;61.20;;;;;;6129248;23;20014;-74
2023/03/07 08:42:47;;;;;;;6.53;3.45;;;8.50;61.10;;;;;;6129851;23;19999;-74
2023/03/07 08:45:13;;;;;;;6.68;3.78;;;8.60;61.10;;;;;;6129330;23;20002;-74
2023/03/07 08:47:39;;;;;;;7.45;4.28;;;8.70;60.80;;;;;;6129697;23;20030;-74
2023/03/07 08:50:05;;;;;;;5.32;3.78;;;8.70;60.70;;;;;;6128756;23;20009;-73
2023/03/07 08:52:31;;;;;;;8.70;4.50;;;8.80;60.90;;;;;;6129670;23;20048;-74
2023/03/07 08:54:57;;;;;;;5.68;3.80;;;8.80;60.40;;;;;;6129634;23;20006;-74
2023/03/07 08:57:23;;;;;;;10.55;4.75;;;8.90;60.40;;;;;;6129318;23;20041;-76
2023/03/07 08:59:49;;;;;;;7.65;4.25;;;8.90;60.20;;;;;;6129201;23;20005;-74
2023/03/07 09:02:14;;;;;;;6.95;4.55;;;8.90;60.30;;;;;;6129606;23;20029;-74
2023/03/07 09:04:40;;;;;;;6.90;4.47;;;9.00;60.50;;;;;;6129158;23;20006;-74
2023/03/07 09:07:06;;;;;;;9.05;5.10;;;9.00;59.90;;;;;;6130069;23;20002;-74
2023/03/07 09:09:31;;;;;;;7.68;4.10;;;9.00;60.20;;;;;;6128875;23;20009;-75
2023/03/07 09:11:57;;;;;;;10.10;4.32;;;9.10;59.80;;;;;;6129371;23;20315;-74
2023/03/07 09:14:23;;;;;;;7.20;4.05;;;9.20;59.70;;;;;;6129033;23;20030;-74
2023/03/07 09:16:49;;;;;;;10.88;4.55;;;9.10;59.30;;;;;;6129560;23;20072;-74
2023/03/07 09:19:14;;;;;;;5.85;3.30;;;9.30;59.00;;;;;;6103125;23;20082;-74
2023/03/07 09:21:40;;;;;;;8.63;4.03;;;9.40;58.90;;;;;;6129324;23;20002;-74
2023/03/07 09:24:06;;;;;;;5.82;3.75;;;9.50;59.20;;;;;;6103703;23;20006;-74
2023/03/07 09:26:32;;;;;;;9.27;4.60;;;9.50;59.40;;;;;;6128179;23;20437;-74
2023/03/07 09:28:58;;;;;;;7.18;3.97;;;9.50;59.20;;;;;;6129142;23;20013;-75
2023/03/07 09:31:24;;;;;;;9.15;4.28;;;9.50;59.10;;;;;;6128670;23;20014;-75
2023/03/07 09:33:50;;;;;;;8.95;5.55;;;9.50;59.30;;;;;;6128563;23;20006;-76
2023/03/07 09:36:18;;;;;;;7.03;3.65;;;9.60;59.40;;;;;;6128750;23;20811;-75
2023/03/07 09:38:44;;;;;;;8.70;4.22;;;9.60;59.30;;;;;;6129513;23;20025;-75
2023/03/07 09:41:19;;;;;;;6.68;3.83;;;9.70;59.50;;;;;;6128760;23;19998;-75
2023/03/07 09:44:02;;;;;;;7.38;3.28;;;9.80;59.00;;;;;;6127254;23;20006;-75
2023/03/07 09:46:52;;;;;;;6.68;3.38;;;9.90;58.50;;;;;;6128775;23;20081;-75
2023/03/07 09:49:24;;;;;;;7.35;3.80;;;9.80;58.50;;;;;;6128072;23;20017;-75
2023/03/07 09:51:52;;;;;;;10.15;3.55;;;9.90;58.50;;;;;;6128415;23;20037;-76
2023/03/07 09:54:23;;;;;;;8.35;4.82;;;9.90;58.20;;;;;;6128381;23;20002;-75
2023/03/07 09:56:52;;;;;;;;;;;9.90;58.40;;;;;;6129179;23;19998;-75
2023/03/07 09:59:44;;;;;;;6.90;4.60;;;9.90;58.00;;;;;;6128614;23;20306;-75
2023/03/07 10:02:14;;;;;;;8.18;3.67;;;10.00;57.80;;;;;;6101471;23;20791;-75
2023/03/07 10:05:14;;;;;;;8.80;3.65;;;10.20;57.70;;;;;;6127440;23;20081;-75
2023/03/07 10:07:40;;;;;;;9.13;4.90;;;10.30;57.10;;;;;;6128875;23;20017;-75
2023/03/07 10:10:17;;;;;;;7.85;4.18;;;10.40;56.30;;;;;;6128999;23;20006;-75
2023/03/07 10:13:04;;;;;;;10.88;5.07;;;10.50;56.60;;;;;;6128738;23;20033;-75
2023/03/07 10:15:35;;;;;;;8.00;4.75;;;10.60;56.70;;;;;;6128958;23;20033;-75
2023/03/07 10:18:25;;;;;;;5.43;4.05;;;11.30;55.40;;;;;;6128196;23;20006;-75
2023/03/07 10:21:10;;;;;;;6.97;3.40;;;12.10;53.20;;;;;;6127730;23;20006;-76
2023/03/07 10:23:51;;;;;;;7.05;3.70;;;12.50;51.90;;;;;;6127546;23;20010;-75
2023/03/07 10:26:28;;;;;;;9.30;4.18;;;12.60;51.10;;;;;;6127933;23;20010;-75
2023/03/07 10:28:58;;;;;;;4.68;3.20;;;12.60;50.90;;;;;;6126880;23;20428;-76
2023/03/07 10:31:31;;;;;;;7.78;4.10;;;12.50;50.30;;;;;;6127215;23;20104;-75
2023/03/07 10:33:57;;;;;;;6.90;4.35;;;12.50;51.50;;;;;;6126747;23;20061;-75
2023/03/07 10:36:42;;;;;;;4.82;2.85;;;12.70;51.00;;;;;;6101826;23;20534;-76
2023/03/07 10:39:45;;;;;;;5.43;3.50;;;12.70;50.00;;;;;;6128404;23;20024;-75
2023/03/07 10:42:13;;;;;;;5.95;2.83;;;12.70;50.40;;;;;;6127887;23;20006;-76
2023/03/07 10:44:39;;;;;;;6.10;3.63;;;12.60;50.30;;;;;;6128190;23;20088;-75
2023/03/07 10:47:05;;;;;;;7.43;3.60;;;12.30;50.80;;;;;;6126832;23;20006;-75
2023/03/07 10:49:41;;;;;;;5.25;2.88;;;12.20;51.60;;;;;;6126764;23;20385;-75
2023/03/07 10:52:38;;;;;;;5.03;3.25;;;12.10;51.70;;;;;;6127635;23;20006;-75
2023/03/07 10:55:35;;;;;;;8.63;3.33;;;12.00;51.50;;;;;;6126858;23;20010;-75
2023/03/07 10:58:27;;;;;;;9.93;3.55;;;11.90;51.20;;;;;;6127266;23;20024;-75
2023/03/07 11:01:13;;;;;;;5.53;3.13;;;11.80;51.50;;;;;;6127648;23;20389;-75
2023/03/07 11:03:56;;;;;;;5.82;3.50;;;11.80;52.00;;;;;;6128252;23;20033;-75
2023/03/07 11:06:33;;;;;;;6.15;3.67;;;11.80;51.80;;;;;;6128248;23;20033;-74
2023/03/07 11:09:21;;;;;;;6.00;3.75;;;11.80;51.50;;;;;;6128233;23;20013;-75
2023/03/07 11:11:53;;;;;;;7.57;3.25;;;11.90;51.20;;;;;;6128134;23;20013;-75
2023/03/07 11:14:20;;;;;;;7.72;3.55;;;11.90;51.10;;;;;;6127062;23;20447;-75
2023/03/07 11:17:00;;;;;;;4.78;2.97;;;12.00;50.40;;;;;;6127696;23;20002;-75
2023/03/07 11:19:38;;;;;;;5.72;2.58;;;11.90;50.70;;;;;;6128574;23;20060;-75
2023/03/07 11:22:20;;;;;;;11.23;3.20;;;11.90;50.50;;;;;;6128453;23;20069;-75
2023/03/07 11:25:11;;;;;;;4.85;2.83;;;11.90;51.10;;;;;;6127989;23;20006;-75
2023/03/07 11:27:50;;;;;;;5.53;3.33;;;11.80;51.30;;;;;;6128385;23;20623;-75
2023/03/07 11:30:26;;;;;;;7.50;3.90;;;11.80;51.60;;;;;;6127732;23;20006;-76
2023/03/07 11:32:57;;;;;;;5.15;3.47;;;11.80;51.20;;;;;;6127162;23;20025;-75
2023/03/07 11:35:35;;;;;;;6.90;3.22;;;11.80;51.60;;;;;;6128047;23;20020;-75
2023/03/07 11:38:11;;;;;;;5.30;2.80;;;11.90;51.30;;;;;;6127747;23;20016;-75
2023/03/07 11:40:49;;;;;;;5.25;3.05;;;12.00;51.30;;;;;;6128417;23;20009;-75
2023/03/07 11:43:17;;;;;;;6.60;2.92;;;12.30;51.00;;;;;;6127361;23;19998;-75
2023/03/07 11:46:04;;;;;;;7.70;3.47;;;12.30;51.00;;;;;;6127681;23;20018;-75
2023/03/07 11:48:58;;;;;;;6.82;3.30;;;12.40;51.00;;;;;;6127945;23;20057;-77
2023/03/07 11:51:58;;;;;;;6.32;2.78;;;12.50;51.00;;;;;;6128435;23;19998;-77
2023/03/07 11:54:33;;;;;;;8.80;3.92;;;12.30;50.80;;;;;;6101508;23;20006;-77
2023/03/07 11:57:23;;;;;;;8.65;3.65;;;12.20;51.50;;;;;;6128448;23;20002;-77
2023/03/07 11:59:58;;;;;;;6.22;3.45;;;12.00;52.40;;;;;;6127355;23;20009;-77
2023/03/07 12:03:07;;;;;;;7.53;4.28;;;12.00;52.30;;;;;;6127238;23;19999;-77
2023/03/07 12:05:36;;;;;;;8.45;3.83;;;12.20;52.50;;;;;;6108222;23;20002;-77
2023/03/07 12:08:01;;;;;;;9.77;4.60;;;12.50;51.90;;;;;;6127993;23;20006;-77
2023/03/07 12:11:05;;;;;;;5.90;3.05;;;12.80;51.80;;;;;;6128528;23;20002;-77
2023/03/07 12:13:53;;;;;;;7.00;3.90;;;12.80;51.20;;;;;;5981670;24;20016;-77
2023/03/07 12:16:22;;;;;;;12.15;4.60;;;12.60;51.80;;;;;;6119812;23;20329;-77
2023/03/07 12:19:11;;;;;;;6.90;4.07;;;12.30;52.30;;;;;;6127720;23;20029;-77
2023/03/07 12:21:52;;;;;;;6.63;3.85;;;12.20;52.30;;;;;;6102202;23;20010;-77
2023/03/07 12:24:23;;;;;;;7.93;4.30;;;12.20;53.10;;;;;;6128255;23;20006;-77
2023/03/07 12:27:10;;;;;;;6.10;3.85;;;12.00;53.50;;;;;;6127881;23;20057;-77
2023/03/07 12:29:56;;;;;;;8.82;4.28;;;12.10;53.50;;;;;;6128043;23;20002;-77
2023/03/07 12:32:24;;;;;;;10.75;4.50;;;12.20;53.80;;;;;;6127747;23;20017;-77
2023/03/07 12:35:16;;;;;;;8.88;4.15;;;12.30;53.70;;;;;;6127779;23;20097;-77
2023/03/07 12:37:51;;;;;;;8.48;4.20;;;12.30;53.60;;;;;;6128006;23;20434;-77
2023/03/07 12:40:24;;;;;;;7.88;4.57;;;12.30;53.80;;;;;;6102285;23;20410;-77
2023/03/07 12:43:20;;;;;;;6.53;4.47;;;12.40;54.00;;;;;;6128209;23;20029;-77
2023/03/07 12:46:14;;;;;;;7.05;4.00;;;12.40;54.20;;;;;;6101481;23;20012;-77
2023/03/07 12:48:39;;;;;;;4.65;3.35;;;12.40;54.10;;;;;;6109573;23;20017;-78
2023/03/07 12:51:05;;;;;;;10.18;4.63;;;12.40;54.20;;;;;;6129001;23;20006;-77
2023/03/07 12:53:42;;;;;;;9.98;4.88;;;12.30;54.60;;;;;;6129746;23;20013;-77
2023/03/07 12:56:30;;;;;;;9.27;4.30;;;12.30;54.70;;;;;;6129062;23;20006;-77
2023/03/07 12:59:03;;;;;;;6.75;3.33;;;12.20;55.00;;;;;;6129199;23;20002;-76
2023/03/07 13:01:37;;;;;;;6.57;3.63;;;12.00;55.70;;;;;;6129323;23;20464;-77
2023/03/07 13:04:21;;;;;;;11.95;4.38;;;12.00;55.90;;;;;;6129089;23;20013;-77
2023/03/07 13:06:47;;;;;;;8.27;4.25;;;11.90;56.50;;;;;;6129259;23;20006;-79
2023/03/07 13:09:17;;;;;;;10.13;4.70;;;11.90;57.10;;;;;;6129250;23;20010;-77
2023/03/07 13:12:22;;;;;;;10.77;4.97;;;11.90;57.20;;;;;;6127825;23;20005;-74
2023/03/07 13:14:54;;;;;;;11.75;3.97;;;11.90;57.00;;;;;;6127853;23;20002;-74
2023/03/07 13:17:34;;;;;;;9.85;4.63;;;11.90;57.20;;;;;;6128368;23;20010;-74
2023/03/07 13:20:18;;;;;;;5.13;3.58;;;11.90;57.30;;;;;;6128289;23;20316;-74
2023/03/07 13:22:43;;;;;;;7.13;4.13;;;11.90;57.30;;;;;;6127741;23;20028;-74
2023/03/07 13:25:24;;;;;;;4.68;3.15;;;12.00;57.00;;;;;;6127968;23;20034;-75
2023/03/07 13:27:53;;;;;;;10.40;4.40;;;11.90;57.20;;;;;;6127962;23;20013;-74
2023/03/07 13:30:36;;;;;;;6.18;3.55;;;12.00;57.40;;;;;;6127280;23;20034;-74
2023/03/07 13:33:23;;;;;;;4.75;3.15;;;12.20;57.00;;;;;;6128274;23;20013;-75
2023/03/07 13:35:57;;;;;;;8.98;3.92;;;12.20;56.80;;;;;;6126931;23;20014;-75
2023/03/07 13:38:23;;;;;;;8.73;3.95;;;12.20;56.90;;;;;;6128063;23;20010;-75
2023/03/07 13:40:56;;;;;;;9.57;3.85;;;12.20;56.90;;;;;;6127950;23;20016;-74
2023/03/07 13:43:22;;;;;;;6.18;4.03;;;12.10;57.40;;;;;;6127776;23;20002;-74
2023/03/07 13:45:52;;;;;;;9.02;4.55;;;12.10;57.90;;;;;;6128286;23;20006;-75
2023/03/07 13:48:27;;;;;;;8.13;4.22;;;12.10;57.80;;;;;;6127301;23;20012;-75
2023/03/07 13:50:55;;;;;;;7.70;3.00;;;12.20;57.80;;;;;;6128046;23;20033;-74
2023/03/07 13:53:28;;;;;;;9.15;4.80;;;12.10;57.80;;;;;;6128163;23;20001;-75
2023/03/07 13:56:16;;;;;;;6.25;3.47;;;12.20;57.70;;;;;;6095135;23;20006;-74
2023/03/07 13:58:59;;;;;;;5.65;3.17;;;12.10;58.10;;;;;;6128647;23;20025;-75
2023/03/07 14:01:34;;;;;;;7.40;3.55;;;12.00;58.30;;;;;;6128154;23;20085;-74
2023/03/07 14:04:38;;;;;;;6.05;3.88;;;12.00;58.30;;;;;;6128876;23;20030;-74
2023/03/07 14:07:23;;;;;;;10.68;4.18;;;12.00;58.20;;;;;;6097186;23;20019;-74
2023/03/07 14:10:16;;;;;;;5.30;3.40;;;11.90;58.10;;;;;;6100148;23;20022;-75
2023/03/07 14:12:59;;;;;;;6.57;3.75;;;11.90;58.70;;;;;;6127045;23;20005;-74
2023/03/07 14:15:48;;;;;;;5.75;3.42;;;12.00;58.90;;;;;;6127546;23;20516;-74
2023/03/07 14:18:43;;;;;;;5.32;2.95;;;12.00;59.00;;;;;;6127532;23;20028;-75
2023/03/07 14:21:36;;;;;;;5.38;3.28;;;12.00;59.70;;;;;;6127456;23;20033;-74
2023/03/07 14:24:14;;;;;;;7.75;3.33;;;11.90;60.30;;;;;;6124110;23;20010;-74
2023/03/07 14:26:43;;;;;;;6.38;2.83;;;11.90;61.20;;;;;;6127910;23;20006;-75
2023/03/07 14:29:24;;;;;;;3.60;2.53;;;11.80;62.50;;;;;;6125360;23;20017;-74
2023/03/07 14:31:53;;;;;;;6.25;3.65;;;11.60;63.30;;;;;;6128055;23;20153;-74
2023/03/07 14:34:26;;;;;;;10.23;3.63;;;11.60;63.80;;;;;;6128126;23;20002;-74
2023/03/07 14:36:55;;;;;;;6.88;3.40;;;11.40;63.40;;;;;;6128536;23;20006;-75
2023/03/07 14:39:22;;;;;;;6.05;3.22;;;11.40;63.50;;;;;;6128477;23;20002;-75
2023/03/07 14:42:42;;;;;;;8.57;3.28;;;11.40;64.00;;;;;;6122423;23;19998;-74
2023/03/07 14:45:20;;;;;;;4.15;2.63;;;11.30;64.40;;;;;;5977338;24;20016;-74
2023/03/07 14:48:18;;;;;;;4.88;2.67;;;11.50;65.00;;;;;;6126760;23;20002;-75
2023/03/07 14:50:44;;;;;;;6.95;2.80;;;11.50;66.80;;;;;;6128453;23;20069;-74
2023/03/07 14:53:19;;;;;;;6.25;3.00;;;11.60;66.80;;;;;;6125612;23;20629;-75
2023/03/07 14:55:46;;;;;;;7.38;3.50;;;11.60;66.90;;;;;;6128216;23;20036;-75
2023/03/07 14:58:17;;;;;;;7.93;3.08;;;11.60;67.10;;;;;;6123160;23;20373;-75
2023/03/07 15:00:43;;;;;;;5.78;2.78;;;11.60;67.10;;;;;;6122734;23;20013;-75
2023/03/07 15:03:12;;;;;;;6.50;3.22;;;11.60;66.50;;;;;;6126666;23;20002;-74
2023/03/07 15:05:48;;;;;;;7.32;3.70;;;11.50;66.40;;;;;;6123384;23;20093;-75
2023/03/07 15:08:28;;;;;;;4.75;2.42;;;11.50;66.60;;;;;;6124392;23;20014;-74
2023/03/07 15:11:03;;;;;;;6.95;3.88;;;11.50;66.20;;;;;;6127591;23;20084;-74
2023/03/07 15:13:49;;;;;;;8.80;3.78;;;11.50;66.20;;;;;;6126515;23;20024;-74
2023/03/07 15:16:22;;;;;;;7.00;2.88;;;11.40;66.20;;;;;;6127073;23;20002;-75
2023/03/07 15:19:12;;;;;;;5.43;2.58;;;11.30;66.40;;;;;;6125238;23;20009;-74
2023/03/07 15:21:42;;;;;;;9.63;3.67;;;11.30;66.10;;;;;;6128264;23;20002;-75
2023/03/07 15:24:31;;;;;;;8.05;3.88;;;11.20;66.60;;;;;;6124535;23;20002;-74
2023/03/07 15:26:58;;;;;;;7.78;4.07;;;11.20;67.30;;;;;;6102532;23;20017;-74
2023/03/07 15:29:27;;;;;;;8.27;3.28;;;11.20;68.40;;;;;;6125383;23;20009;-75
2023/03/07 15:31:56;;;;;;;5.40;3.85;;;11.10;69.00;;;;;;6125300;23;20029;-74
2023/03/07 15:34:29;;;;;;;6.83;2.57;;;11.10;69.40;;;;;;6126388;23;20006;-75
2023/03/07 15:37:20;;;;;;;6.68;3.60;;;11.00;68.80;;;;;;6123462;23;20006;-73
2023/03/07 15:39:55;;;;;;;8.43;3.67;;;11.10;69.20;;;;;;6100783;23;20041;-73
2023/03/07 15:42:20;;;;;;;6.82;3.47;;;11.00;69.50;;;;;;6121088;23;20334;-74
2023/03/07 15:44:58;;;;;;;6.13;3.35;;;11.10;68.90;;;;;;6126029;23;20016;-74
2023/03/07 15:47:25;;;;;;;6.28;3.70;;;11.10;69.00;;;;;;6126793;23;20010;-75
2023/03/07 15:50:05;;;;;;;7.05;3.80;;;11.10;68.60;;;;;;6098116;23;20685;-77
2023/03/07 15:52:32;;;;;;;8.67;4.17;;;11.10;68.70;;;;;;6127612;23;20089;-76
2023/03/07 15:55:00;;;;;;;4.93;3.08;;;11.10;68.70;;;;;;6101369;23;20041;-74
2023/03/07 15:57:48;;;;;;;8.10;4.13;;;11.20;68.60;;;;;;6128166;23;20459;-74
2023/03/07 16:00:26;;;;;;;5.88;3.70;;;11.10;68.80;;;;;;6125338;23;20505;-74
2023/03/07 16:02:52;;;;;;;8.65;3.33;;;11.10;69.00;;;;;;6121339;23;20006;-75
2023/03/07 16:05:18;;;;;;;5.93;4.05;;;11.00;69.30;;;;;;6128007;23;20010;-75
2023/03/07 16:07:43;;;;;;;8.38;3.95;;;11.00;69.30;;;;;;6127986;23;20010;-74
2023/03/07 16:10:09;;;;;;;5.28;3.50;;;10.90;69.50;;;;;;6127378;23;20016;-74
2023/03/07 16:12:38;;;;;;;6.78;3.40;;;10.80;69.60;;;;;;6126033;23;20434;-75
2023/03/07 16:15:04;;;;;;;9.07;3.67;;;10.80;69.90;;;;;;6121927;23;20009;-74
2023/03/07 16:17:36;;;;;;;9.50;4.25;;;10.90;70.10;;;;;;6128260;23;20006;-75
2023/03/07 16:20:03;;;;;;;9.73;5.30;;;10.80;70.40;;;;;;6102959;23;20012;-77
2023/03/07 16:22:29;;;;;;;9.60;4.57;;;10.90;70.50;;;;;;6128492;23;20368;-76
2023/03/07 16:24:56;;;;;;;5.88;3.58;;;10.80;70.80;;;;;;6128724;23;20425;-75
2023/03/07 16:27:24;;;;;;;8.27;4.13;;;10.80;71.20;;;;;;6130220;23;20002;-76
2023/03/07 16:29:51;;;;;;;8.27;4.25;;;10.80;71.20;;;;;;6103343;23;20009;-76
2023/03/07 16:32:19;;;;;;;7.00;4.03;;;10.80;71.40;;;;;;6128729;23;20239;-76
2023/03/07 16:34:47;;;;;;;7.18;4.43;;;10.80;71.30;;;;;;6130935;23;20009;-76
2023/03/07 16:37:13;;;;;;;6.32;3.70;;;10.80;71.00;;;;;;6129327;23;20450;-76
2023/03/07 16:39:39;;;;;;;5.38;3.30;;;10.80;71.20;;;;;;6125021;23;20028;-75
2023/03/07 16:42:06;;;;;;;3.70;2.72;;;10.80;71.10;;;;;;6129337;23;20143;-75
2023/03/07 16:44:38;;;;;;;5.63;3.35;;;10.90;71.00;;;;;;6128978;23;20437;-76
2023/03/07 16:47:07;;;;;;;5.10;3.33;;;10.90;71.30;;;;;;6128680;23;20010;-75
2023/03/07 16:49:33;;;;;;;10.63;3.23;;;10.80;71.20;;;;;;6128680;23;20002;-76
2023/03/07 16:51:59;;;;;;;4.40;3.15;;;10.80;70.80;;;;;;6129112;23;20028;-76
2023/03/07 16:54:24;;;;;;;5.95;3.45;;;10.80;70.80;;;;;;6128961;23;20342;-76
2023/03/07 16:56:53;;;;;;;7.03;3.78;;;10.80;70.70;;;;;;6128243;23;20346;-77
2023/03/07 16:59:21;;;;;;;9.00;3.67;;;10.70;70.30;;;;;;6102539;23;20497;-76
2023/03/07 17:01:49;;;;;;;5.60;3.15;;;10.70;70.40;;;;;;6127104;23;20026;-77
2023/03/07 17:04:15;;;;;;;9.98;3.72;;;10.60;70.20;;;;;;6123516;23;20014;-75
2023/03/07 17:06:41;;;;;;;5.32;2.88;;;10.70;70.70;;;;;;6128110;23;20040;-76
2023/03/07 17:09:11;;;;;;;5.00;3.30;;;10.60;70.60;;;;;;6128280;23;20006;-76
2023/03/07 17:11:40;;;;;;;7.30;2.70;;;10.60;70.40;;;;;;6128214;23;20085;-76
2023/03/07 17:14:07;;;;;;;7.60;3.72;;;10.60;70.60;;;;;;6127720;23;20025;-76
2023/03/07 17:16:38;;;;;;;10.82;3.83;;;10.60;70.70;;;;;;6096645;23;20029;-76
2023/03/07 17:19:05;;;;;;;5.65;4.25;;;10.60;70.60;;;;;;6128447;23;20002;-76
2023/03/07 17:21:31;;;;;;;4.57;3.28;;;10.60;70.90;;;;;;6128447;23;19998;-76
2023/03/07 17:23:56;;;;;;;7.72;3.00;;;10.60;71.00;;;;;;6128681;23;20061;-76
2023/03/07 17:26:31;;;;;;;4.90;2.97;;;10.50;71.60;;;;;;6127788;23;20737;-76
2023/03/07 17:29:06;;;;;;;7.15;3.00;;;10.60;71.80;;;;;;6123673;23;20048;-76
2023/03/07 17:31:32;;;;;;;6.28;2.92;;;10.50;72.20;;;;;;6128337;23;20139;-76
2023/03/07 17:33:57;;;;;;;7.47;3.13;;;10.50;72.30;;;;;;6128241;23;20010;-76
2023/03/07 17:36:23;;;;;;;4.13;2.83;;;10.50;72.40;;;;;;6123875;23;20057;-76
2023/03/07 17:38:49;;;;;;;6.80;3.40;;;10.50;72.60;;;;;;6128227;23;20006;-76
2023/03/07 17:41:14;;;;;;;7.45;3.80;;;10.50;72.80;;;;;;6102356;23;20009;-76
2023/03/07 17:43:40;;;;;;;7.60;3.67;;;10.50;72.50;;;;;;6103168;23;20017;-76
2023/03/07 17:46:10;;;;;;;9.77;3.95;;;10.50;72.60;;;;;;6101678;23;20060;-76
2023/03/07 17:48:36;;;;;;;6.70;3.83;;;10.50;72.80;;;;;;6126999;23;20077;-76
2023/03/07 17:51:09;;;;;;;10.82;4.22;;;10.50;72.80;;;;;;6100750;23;20522;-76
2023/03/07 17:53:36;;;;;;;6.82;4.03;;;10.30;73.30;;;;;;6102594;23;20711;-76
2023/03/07 17:56:09;;;;;;;13.68;4.43;;;10.30;73.50;;;;;;6128794;23;20464;-76
2023/03/07 17:58:37;;;;;;;7.63;4.22;;;10.30;73.70;;;;;;6100206;23;20012;-76
2023/03/07 18:01:05;;;;;;;7.03;3.00;;;10.30;73.90;;;;;;6128504;23;20017;-76
2023/03/07 18:03:40;;;;;;;4.60;2.90;;;10.30;73.80;;;;;;6103207;23;20009;-76
2023/03/07 18:06:07;;;;;;;7.82;4.30;;;10.30;73.90;;;;;;6128381;23;20081;-76
2023/03/07 18:08:34;;;;;;;8.05;4.50;;;10.30;73.80;;;;;;6102700;23;20002;-76
2023/03/07 18:11:09;;;;;;;7.07;3.67;;;10.30;73.80;;;;;;6127796;23;20006;-76
2023/03/07 18:13:36;;;;;;;7.63;4.80;;;10.30;73.80;;;;;;6128405;23;19998;-81
2023/03/07 18:16:02;;;;;;;6.43;4.20;;;10.30;73.90;;;;;;6125402;23;20542;-76
2023/03/07 18:18:33;;;;;;;7.78;3.70;;;10.30;74.10;;;;;;6124443;23;20014;-77
2023/03/07 18:21:05;;;;;;;6.05;3.97;;;10.20;74.20;;;;;;6123750;23;20449;-79
2023/03/07 18:23:32;;;;;;;9.57;4.72;;;10.10;74.70;;;;;;6102891;23;20409;-77
2023/03/07 18:26:00;;;;;;;11.43;4.57;;;10.20;74.60;;;;;;6102726;23;20013;-76
2023/03/07 18:28:26;;;;;;;7.90;4.28;;;10.20;74.60;;;;;;6125264;23;20033;-78
2023/03/07 18:31:03;;;;;;;5.43;3.80;;;10.20;74.70;;;;;;6128447;23;20018;-78
2023/03/07 18:33:29;;;;;;;9.35;4.57;;;10.20;74.60;;;;;;6125038;23;20009;-81
2023/03/07 18:35:57;;;;;;;7.82;4.57;;;10.10;74.90;;;;;;6108660;23;20002;-78
2023/03/07 18:38:24;;;;;;;5.57;3.42;;;10.00;75.10;;;;;;6133929;23;20009;-78
2023/03/07 18:40:49;;;;;;;8.55;4.57;;;10.00;75.10;;;;;;6102082;23;20480;-80
2023/03/07 18:43:17;;;;;;;9.40;4.38;;;10.00;75.20;;;;;;6131314;23;20005;-78
2023/03/07 18:45:43;;;;;;;9.75;4.80;;;9.90;75.60;;;;;;6126039;23;20104;-77
2023/03/07 18:48:10;;;;;;;7.82;4.25;;;10.00;75.80;;;;;;6128890;23;20061;-77